Time;durP1;ratioP1;P1;durP2;ratioP2;P2;SDS_P1;SDS_P2;PMS_P1;PMS_P2;Temp;Humidity;BMP_temperature;BMP_pressure;BME280_temperature;BME280_humidity;BME280_pressure;Samples;Min_cycle;Max_cycle;Signal;HPM_P1;HPM_P2
2023/01/15 00:01:50;;;;;;;4.73;3.03;;;16.70;67.10;;;;;;5087784;28;20442;-80
2023/01/15 00:04:18;;;;;;;5.37;2.93;;;16.70;67.10;;;;;;5092582;28;20469;-81
2023/01/15 00:06:46;;;;;;;5.20;3.03;;;16.70;67.10;;;;;;5096955;28;20464;-81
2023/01/15 00:09:15;;;;;;;4.50;2.90;;;16.60;67.10;;;;;;5092272;28;20467;-82
2023/01/15 00:11:43;;;;;;;6.27;2.67;;;16.70;67.10;;;;;;5089838;28;20452;-80
2023/01/15 00:14:11;;;;;;;5.20;2.90;;;16.60;67.10;;;;;;5089322;28;20485;-80
2023/01/15 00:16:40;;;;;;;7.35;2.10;;;16.60;67.00;;;;;;5087106;28;20473;-79
2023/01/15 00:19:11;;;;;;;5.23;1.20;;;15.70;63.60;;;;;;5083772;28;20724;-79
2023/01/15 00:21:39;;;;;;;7.20;1.70;;;13.90;65.90;;;;;;5086597;28;20479;-79
2023/01/15 00:29:38;;;;;;;5.30;1.40;;;13.20;85.40;;;;;;5085294;28;20460;-81
2023/01/15 00:32:07;;;;;;;3.17;1.20;;;14.00;83.10;;;;;;5102515;28;20460;-81
2023/01/15 00:34:36;;;;;;;4.53;1.40;;;14.50;81.00;;;;;;5088844;28;20479;-81
2023/01/15 00:37:04;;;;;;;3.00;1.40;;;14.90;79.70;;;;;;5094341;28;20449;-80
2023/01/15 00:39:33;;;;;;;4.10;1.53;;;15.20;78.50;;;;;;5097164;28;20448;-80
2023/01/15 00:42:01;;;;;;;2.87;1.10;;;15.40;77.90;;;;;;5090209;28;20458;-80
2023/01/15 00:44:29;;;;;;;3.23;1.30;;;15.50;77.20;;;;;;5085245;28;20998;-80
2023/01/15 00:46:57;;;;;;;4.10;1.23;;;15.60;77.10;;;;;;5084034;28;20452;-80
2023/01/15 00:49:25;;;;;;;5.13;1.40;;;15.70;76.20;;;;;;5081464;28;20444;-80
2023/01/15 00:51:54;;;;;;;2.87;1.27;;;15.80;76.20;;;;;;5087809;28;20453;-80
2023/01/15 00:54:22;;;;;;;3.53;1.30;;;15.90;75.80;;;;;;5093801;28;20461;-80
2023/01/15 00:56:50;;;;;;;6.00;1.50;;;15.90;75.00;;;;;;5095389;28;20464;-80
2023/01/15 00:59:18;;;;;;;4.30;1.30;;;15.90;74.70;;;;;;5088529;28;20472;-81
2023/01/15 01:01:45;;;;;;;2.53;1.00;;;16.00;74.60;;;;;;5093302;28;20448;-80
2023/01/15 01:04:14;;;;;;;3.20;1.20;;;16.00;74.50;;;;;;5093586;28;20468;-80
2023/01/15 01:06:41;;;;;;;5.20;1.47;;;16.00;74.40;;;;;;5088479;28;20444;-80
2023/01/15 01:09:12;;;;;;;2.87;1.90;;;16.00;73.90;;;;;;5086556;28;20432;-81
2023/01/15 01:11:39;;;;;;;7.07;1.57;;;16.10;73.60;;;;;;5089703;28;20433;-80
2023/01/15 01:14:07;;;;;;;2.23;1.10;;;16.10;73.30;;;;;;5094854;28;20479;-80
2023/01/15 01:16:36;;;;;;;2.57;1.40;;;16.10;72.80;;;;;;5091903;28;20484;-80
2023/01/15 01:19:05;;;;;;;3.73;1.43;;;16.10;72.90;;;;;;5097505;28;20449;-80
2023/01/15 01:21:33;;;;;;;3.93;1.40;;;16.10;72.60;;;;;;5096477;28;20836;-80
2023/01/15 01:24:01;;;;;;;4.70;1.47;;;16.10;72.10;;;;;;5095066;28;20495;-80
2023/01/15 01:26:30;;;;;;;3.03;1.30;;;16.10;72.00;;;;;;5088302;28;20447;-81
2023/01/15 01:28:59;;;;;;;9.30;1.70;;;16.20;71.90;;;;;;5091056;28;20844;-80
2023/01/15 01:31:26;;;;;;;5.00;2.23;;;16.10;71.40;;;;;;5093614;28;20449;-80
2023/01/15 01:33:57;;;;;;;7.00;1.20;;;16.20;71.40;;;;;;5091744;28;20475;-80
2023/01/15 01:36:27;;;;;;;4.40;1.47;;;16.20;71.10;;;;;;5095385;28;20519;-80
2023/01/15 01:38:55;;;;;;;4.43;1.57;;;16.20;70.80;;;;;;5093030;28;20441;-80
2023/01/15 01:41:23;;;;;;;5.17;1.43;;;16.10;70.40;;;;;;5095680;28;20464;-80
2023/01/15 01:43:55;;;;;;;8.60;2.13;;;16.20;70.40;;;;;;5094842;28;20453;-80
2023/01/15 01:46:23;;;;;;;3.10;1.80;;;16.20;70.00;;;;;;5090518;28;20448;-80
2023/01/15 01:48:54;;;;;;;2.03;1.60;;;16.20;70.10;;;;;;5089868;28;20433;-80
2023/01/15 01:51:23;;;;;;;6.63;2.03;;;16.20;70.10;;;;;;5092908;28;20456;-80
2023/01/15 01:53:50;;;;;;;2.10;1.50;;;16.10;69.60;;;;;;5092522;28;20467;-80
2023/01/15 01:56:19;;;;;;;3.50;1.60;;;16.20;69.60;;;;;;5088294;28;20469;-80
2023/01/15 01:58:48;;;;;;;4.60;1.50;;;16.20;69.50;;;;;;5094288;28;20441;-81
2023/01/15 02:01:18;;;;;;;2.93;1.60;;;16.20;69.20;;;;;;5093904;28;20445;-80
2023/01/15 02:03:46;;;;;;;3.33;1.60;;;16.20;69.30;;;;;;5098922;28;20464;-80
2023/01/15 02:06:14;;;;;;;9.10;1.40;;;16.20;69.20;;;;;;5088344;28;20453;-80
2023/01/15 02:08:42;;;;;;;3.57;1.83;;;16.20;69.30;;;;;;5081888;28;20445;-81
2023/01/15 02:11:17;;;;;;;9.17;5.97;;;16.20;69.10;;;;;;5082574;28;20454;-80
2023/01/15 02:13:49;;;;;;;5.10;3.30;;;16.10;68.90;;;;;;5086511;28;20467;-80
2023/01/15 02:16:21;;;;;;;6.00;3.77;;;16.10;69.00;;;;;;5090155;28;20508;-79
2023/01/15 02:18:51;;;;;;;10.10;3.60;;;16.10;68.80;;;;;;5089047;28;20539;-79
2023/01/15 02:21:23;;;;;;;7.87;4.60;;;16.20;68.90;;;;;;5094178;28;20432;-82
2023/01/15 02:24:00;;;;;;;8.87;3.80;;;16.10;68.70;;;;;;5093189;28;20472;-79
2023/01/15 02:26:58;;;;;;;7.63;3.60;;;16.10;68.60;;;;;;5089877;28;20450;-79
2023/01/15 02:29:29;;;;;;;6.00;3.13;;;16.20;68.70;;;;;;5089685;28;20436;-79
2023/01/15 02:31:57;;;;;;;7.03;3.50;;;16.10;68.70;;;;;;5092887;28;20460;-79
2023/01/15 02:34:26;;;;;;;7.57;3.90;;;16.10;68.70;;;;;;5092705;28;20464;-79
2023/01/15 02:36:56;;;;;;;7.47;3.40;;;16.10;68.60;;;;;;5092785;28;20472;-80
2023/01/15 02:39:25;;;;;;;9.07;3.20;;;16.10;68.40;;;;;;5089130;28;20436;-80
2023/01/15 02:41:52;;;;;;;3.60;3.30;;;16.10;68.50;;;;;;5088821;28;20959;-80
2023/01/15 02:44:22;;;;;;;8.17;3.43;;;16.10;68.40;;;;;;5085778;28;20469;-80
2023/01/15 02:46:50;;;;;;;6.70;3.37;;;16.10;68.20;;;;;;5087295;28;20436;-79
2023/01/15 02:49:20;;;;;;;6.00;3.47;;;16.10;68.40;;;;;;5091270;28;20449;-79
2023/01/15 02:51:52;;;;;;;5.80;3.00;;;16.10;68.40;;;;;;5088511;28;20461;-80
2023/01/15 02:54:20;;;;;;;5.63;2.97;;;16.10;68.10;;;;;;5092175;28;20472;-79
2023/01/15 02:56:48;;;;;;;5.03;3.23;;;16.10;68.30;;;;;;5090304;28;20471;-80
2023/01/15 02:59:20;;;;;;;7.73;3.47;;;16.10;68.20;;;;;;5091759;28;20453;-79
2023/01/15 03:01:51;;;;;;;7.07;3.10;;;16.10;68.10;;;;;;5092437;28;20429;-79
2023/01/15 03:04:20;;;;;;;6.13;3.13;;;16.10;68.10;;;;;;5091600;28;21136;-79
2023/01/15 03:06:49;;;;;;;5.13;3.13;;;16.10;68.20;;;;;;5103061;28;20483;-80
2023/01/15 03:09:17;;;;;;;5.17;2.90;;;16.10;68.00;;;;;;5096327;28;20472;-79
2023/01/15 03:11:49;;;;;;;9.07;3.40;;;16.10;68.10;;;;;;5092274;28;20440;-79
2023/01/15 03:14:19;;;;;;;8.10;3.00;;;16.10;68.10;;;;;;5085830;28;20487;-79
2023/01/15 03:16:48;;;;;;;6.33;2.47;;;16.10;68.10;;;;;;5085167;28;20488;-80
2023/01/15 03:19:22;;;;;;;10.27;3.63;;;16.10;68.10;;;;;;5093264;28;20465;-79
2023/01/15 03:21:54;;;;;;;5.90;2.67;;;16.10;67.80;;;;;;5085511;28;20451;-80
2023/01/15 03:24:26;;;;;;;4.93;3.07;;;16.10;68.10;;;;;;5090301;28;20483;-80
2023/01/15 03:26:55;;;;;;;5.43;3.00;;;16.10;68.00;;;;;;5089225;28;20457;-80
2023/01/15 03:29:23;;;;;;;4.57;2.97;;;16.10;67.90;;;;;;5095684;28;20451;-80
2023/01/15 03:31:51;;;;;;;2.80;2.50;;;16.10;68.00;;;;;;5091956;28;20455;-80
2023/01/15 03:34:20;;;;;;;9.17;2.97;;;16.10;67.80;;;;;;5088752;28;20544;-81
2023/01/15 03:36:48;;;;;;;6.60;2.73;;;16.10;67.80;;;;;;5084009;28;20469;-80
2023/01/15 03:39:16;;;;;;;5.83;3.00;;;16.10;67.90;;;;;;5096757;28;20456;-81
2023/01/15 03:41:52;;;;;;;5.63;2.97;;;16.10;68.00;;;;;;5095463;28;20453;-80
2023/01/15 03:44:25;;;;;;;5.00;2.90;;;16.10;67.90;;;;;;5101092;28;20487;-80
2023/01/15 03:46:58;;;;;;;5.77;3.30;;;16.10;67.90;;;;;;5100102;28;20469;-80
2023/01/15 03:49:33;;;;;;;3.53;2.50;;;16.00;67.80;;;;;;5091560;28;20453;-80
2023/01/15 03:52:02;;;;;;;9.13;3.10;;;16.10;67.90;;;;;;5092703;28;20459;-80
2023/01/15 03:54:35;;;;;;;5.33;2.87;;;16.10;67.90;;;;;;5096824;28;20460;-80
2023/01/15 03:57:05;;;;;;;4.57;2.70;;;16.10;67.80;;;;;;5095918;28;20475;-80
2023/01/15 03:59:34;;;;;;;6.30;2.80;;;16.10;67.80;;;;;;5101006;28;20452;-80
2023/01/15 04:02:03;;;;;;;7.13;3.03;;;16.10;67.80;;;;;;5090749;28;20445;-80
2023/01/15 04:04:32;;;;;;;6.50;2.67;;;16.00;67.80;;;;;;5090797;28;20522;-80
2023/01/15 04:07:01;;;;;;;7.73;2.67;;;16.00;67.80;;;;;;5089681;28;20498;-80
2023/01/15 04:09:29;;;;;;;5.27;2.60;;;16.00;67.60;;;;;;5092355;28;20445;-80
2023/01/15 04:11:59;;;;;;;5.43;3.10;;;16.00;67.60;;;;;;5097667;28;20474;-79
2023/01/15 04:14:27;;;;;;;3.10;2.50;;;16.00;67.70;;;;;;5095857;28;20480;-81
2023/01/15 04:16:55;;;;;;;4.57;2.60;;;16.00;67.60;;;;;;5086252;28;20471;-80
2023/01/15 04:19:23;;;;;;;6.80;2.80;;;16.00;67.50;;;;;;5091502;28;20461;-80
2023/01/15 04:21:53;;;;;;;8.50;2.77;;;16.00;67.50;;;;;;5085579;28;20448;-80
2023/01/15 04:24:21;;;;;;;6.67;2.90;;;16.00;67.60;;;;;;5086953;28;20480;-80
2023/01/15 04:26:49;;;;;;;5.63;3.13;;;16.00;67.40;;;;;;5094446;28;20447;-80
2023/01/15 04:29:16;;;;;;;4.07;2.83;;;16.00;67.40;;;;;;5097406;28;20452;-80
2023/01/15 04:31:44;;;;;;;4.07;2.50;;;16.00;67.50;;;;;;5087487;28;20456;-80
2023/01/15 04:34:13;;;;;;;7.20;2.73;;;16.00;67.40;;;;;;5086027;28;20476;-80
2023/01/15 04:36:42;;;;;;;4.27;2.73;;;16.00;67.50;;;;;;5088476;28;20468;-80
2023/01/15 04:39:11;;;;;;;11.40;3.23;;;16.00;67.30;;;;;;5097879;28;20459;-80
2023/01/15 04:44:27;;;;;;;7.33;3.20;;;16.00;67.40;;;;;;5097862;28;20476;-80
2023/01/15 04:46:56;;;;;;;6.53;2.60;;;15.90;67.30;;;;;;5095865;28;20444;-80
2023/01/15 04:49:24;;;;;;;5.67;2.80;;;15.90;67.10;;;;;;5095834;28;20516;-80
2023/01/15 04:51:52;;;;;;;8.47;2.87;;;15.90;67.20;;;;;;5096280;28;20474;-80
2023/01/15 04:54:22;;;;;;;4.37;2.73;;;15.90;67.10;;;;;;5097688;28;20472;-81
2023/01/15 04:56:51;;;;;;;10.80;3.20;;;16.00;67.20;;;;;;5094857;28;20468;-80
2023/01/15 04:59:20;;;;;;;6.53;3.00;;;15.90;67.00;;;;;;5092488;28;20449;-80
2023/01/15 05:01:48;;;;;;;6.67;2.87;;;15.90;66.90;;;;;;5082777;28;20499;-80
2023/01/15 05:04:30;;;;;;;5.50;2.80;;;15.90;67.10;;;;;;5093934;28;20472;-80
2023/01/15 05:07:00;;;;;;;4.90;2.67;;;15.90;67.10;;;;;;5096593;28;20796;-80
2023/01/15 05:09:29;;;;;;;6.13;2.87;;;15.90;67.00;;;;;;5099894;28;20446;-80
2023/01/15 05:11:57;;;;;;;4.83;2.90;;;15.90;67.10;;;;;;5099255;28;20974;-80
2023/01/15 05:14:25;;;;;;;5.77;2.57;;;15.90;67.20;;;;;;5090380;28;20860;-80
2023/01/15 05:16:53;;;;;;;5.43;2.40;;;15.90;67.00;;;;;;5090933;28;20483;-80
2023/01/15 05:19:21;;;;;;;7.70;3.00;;;15.90;67.00;;;;;;5095843;28;20455;-81
2023/01/15 05:21:50;;;;;;;5.60;2.70;;;15.80;66.80;;;;;;5095931;28;20529;-79
2023/01/15 05:24:18;;;;;;;5.37;2.87;;;15.80;66.90;;;;;;5090373;28;20461;-81
2023/01/15 05:26:48;;;;;;;7.63;3.07;;;15.80;66.90;;;;;;5102503;28;20458;-81
2023/01/15 05:29:16;;;;;;;3.70;2.50;;;15.90;66.90;;;;;;5093940;28;20464;-80
2023/01/15 05:31:44;;;;;;;5.37;2.70;;;15.90;67.00;;;;;;5088731;28;20463;-79
2023/01/15 05:34:13;;;;;;;5.70;2.60;;;15.80;67.10;;;;;;5091510;28;20472;-80
2023/01/15 05:36:41;;;;;;;4.60;2.73;;;15.90;66.80;;;;;;5100947;28;20460;-79
2023/01/15 05:39:09;;;;;;;6.87;2.90;;;15.80;67.00;;;;;;5101762;28;20454;-80
2023/01/15 05:41:49;;;;;;;9.87;3.80;;;15.80;66.80;;;;;;5099953;28;20474;-79
2023/01/15 05:44:20;;;;;;;4.10;2.80;;;15.90;67.10;;;;;;5099451;28;20463;-79
2023/01/15 05:46:49;;;;;;;6.17;2.63;;;15.90;67.00;;;;;;5082427;28;20453;-80
2023/01/15 05:49:18;;;;;;;7.73;2.90;;;15.90;66.90;;;;;;5094738;28;20449;-80
2023/01/15 05:51:46;;;;;;;5.90;2.90;;;15.80;66.80;;;;;;5091064;28;20457;-80
2023/01/15 05:54:15;;;;;;;3.77;2.57;;;15.80;67.00;;;;;;5088790;28;20472;-80
2023/01/15 05:56:44;;;;;;;6.07;3.00;;;15.80;66.90;;;;;;5093537;28;20456;-80
2023/01/15 05:59:14;;;;;;;8.27;2.80;;;15.90;66.90;;;;;;5092346;28;20472;-80
2023/01/15 06:01:43;;;;;;;7.53;2.83;;;15.80;66.70;;;;;;5095883;28;20453;-79
2023/01/15 06:04:12;;;;;;;6.33;2.80;;;15.80;66.70;;;;;;5093210;28;20482;-80
2023/01/15 06:06:40;;;;;;;4.73;2.70;;;15.80;66.70;;;;;;5097681;28;20445;-79
2023/01/15 06:09:08;;;;;;;7.23;3.27;;;15.80;66.70;;;;;;5096299;28;20448;-80
2023/01/15 06:11:37;;;;;;;5.17;2.73;;;15.80;66.80;;;;;;5090626;28;20472;-80
2023/01/15 06:14:05;;;;;;;8.00;2.80;;;15.80;66.80;;;;;;5094346;28;20472;-80
2023/01/15 06:16:33;;;;;;;8.07;3.37;;;15.80;66.80;;;;;;5099396;28;20471;-79
2023/01/15 06:19:03;;;;;;;6.57;3.03;;;15.80;66.80;;;;;;5088788;28;20469;-80
2023/01/15 06:21:31;;;;;;;4.53;2.30;;;15.70;66.60;;;;;;5096548;28;20479;-80
2023/01/15 06:23:59;;;;;;;5.47;2.80;;;15.70;66.60;;;;;;5103516;28;20470;-80
2023/01/15 06:26:27;;;;;;;8.20;3.10;;;15.80;66.50;;;;;;5099361;28;20451;-80
2023/01/15 06:28:55;;;;;;;7.50;2.90;;;15.70;66.30;;;;;;5094856;28;20459;-79
2023/01/15 06:31:25;;;;;;;3.83;2.43;;;15.70;66.40;;;;;;5092491;28;20462;-79
2023/01/15 06:33:54;;;;;;;5.40;2.87;;;15.70;66.20;;;;;;5087193;28;20629;-79
2023/01/15 06:36:26;;;;;;;6.20;2.40;;;15.70;66.20;;;;;;5091257;28;20444;-80
2023/01/15 06:38:54;;;;;;;8.10;3.70;;;15.70;66.40;;;;;;5089751;28;20472;-80
2023/01/15 06:49:42;;;;;;;5.70;2.50;;;15.60;66.00;;;;;;5101941;28;20448;-80
2023/01/15 06:52:11;;;;;;;8.00;2.90;;;15.60;66.00;;;;;;5097820;28;20455;-80
2023/01/15 06:54:39;;;;;;;6.80;2.90;;;15.60;66.10;;;;;;5098603;28;20470;-79
2023/01/15 06:57:06;;;;;;;7.30;2.80;;;15.60;65.90;;;;;;5104135;28;20526;-80
2023/01/15 06:59:34;;;;;;;8.70;3.00;;;15.60;65.80;;;;;;5097280;28;20465;-80
2023/01/15 07:02:02;;;;;;;8.73;2.40;;;15.50;65.50;;;;;;5092410;28;20462;-80
2023/01/15 07:04:30;;;;;;;7.10;2.80;;;15.50;65.50;;;;;;5091366;28;20469;-80
2023/01/15 07:06:58;;;;;;;5.17;2.53;;;15.50;65.60;;;;;;5097423;28;20441;-79
2023/01/15 07:09:28;;;;;;;5.60;2.13;;;15.50;65.40;;;;;;5089075;28;20452;-79
2023/01/15 07:11:56;;;;;;;3.73;2.30;;;15.50;65.20;;;;;;5088920;28;20451;-79
2023/01/15 07:14:25;;;;;;;3.20;2.43;;;15.50;65.40;;;;;;5089564;28;20476;-80
2023/01/15 07:16:53;;;;;;;4.97;2.57;;;15.50;65.20;;;;;;5101918;28;20451;-79
2023/01/15 07:19:21;;;;;;;9.10;3.07;;;15.50;65.10;;;;;;5089723;28;21079;-79
2023/01/15 07:21:50;;;;;;;5.17;2.47;;;15.40;65.30;;;;;;5094615;28;20584;-79
2023/01/15 07:24:17;;;;;;;4.90;2.50;;;15.40;65.10;;;;;;5095552;28;20468;-79
2023/01/15 07:26:47;;;;;;;6.00;2.67;;;15.40;64.90;;;;;;5097391;28;20451;-79
2023/01/15 07:29:15;;;;;;;8.60;2.20;;;15.40;64.90;;;;;;5108397;28;20454;-80
2023/01/15 07:31:43;;;;;;;6.63;2.87;;;15.40;64.90;;;;;;5100234;28;20460;-80
2023/01/15 07:34:11;;;;;;;6.90;2.60;;;15.40;64.80;;;;;;5094928;28;20478;-79
2023/01/15 07:36:39;;;;;;;8.53;2.77;;;15.40;64.60;;;;;;5088329;28;20449;-80
2023/01/15 07:39:08;;;;;;;4.90;2.50;;;15.40;65.20;;;;;;5103003;28;20471;-80
2023/01/15 07:50:00;;;;;;;7.43;2.27;;;15.30;64.20;;;;;;5099018;28;20450;-79
2023/01/15 07:52:28;;;;;;;5.20;2.23;;;15.30;64.30;;;;;;5090472;28;20453;-79
2023/01/15 07:54:56;;;;;;;11.23;2.60;;;15.30;64.20;;;;;;5083489;28;20463;-78
2023/01/15 07:57:24;;;;;;;5.40;2.17;;;15.30;64.10;;;;;;5097346;28;20452;-78
2023/01/15 07:59:54;;;;;;;7.03;2.20;;;15.30;64.00;;;;;;5091610;28;20459;-80
2023/01/15 08:02:22;;;;;;;5.30;2.17;;;15.30;64.00;;;;;;5097386;28;20950;-79
2023/01/15 08:04:50;;;;;;;2.97;2.00;;;15.30;64.00;;;;;;5098769;28;20469;-80
2023/01/15 08:07:18;;;;;;;5.43;2.00;;;15.30;63.90;;;;;;5086380;28;20449;-80
2023/01/15 08:09:46;;;;;;;4.83;2.50;;;15.30;63.80;;;;;;5099105;28;20456;-80
2023/01/15 08:15:13;;;;;;;6.77;2.20;;;15.30;63.70;;;;;;5098170;28;20475;-80
2023/01/15 08:17:42;;;;;;;10.03;2.30;;;15.30;63.60;;;;;;5105961;28;20445;-80
2023/01/15 08:20:12;;;;;;;5.90;2.17;;;15.30;63.60;;;;;;5102241;28;20584;-79
2023/01/15 08:22:40;;;;;;;8.70;2.50;;;15.30;63.40;;;;;;5103379;28;20445;-80
2023/01/15 08:25:09;;;;;;;4.23;2.00;;;15.30;63.50;;;;;;5098973;28;20468;-80
2023/01/15 08:27:37;;;;;;;3.30;2.33;;;15.30;63.40;;;;;;5108810;28;20456;-79
2023/01/15 08:30:09;;;;;;;6.93;2.00;;;15.30;63.10;;;;;;5104240;28;20456;-80
2023/01/15 08:32:37;;;;;;;8.07;2.17;;;15.40;63.30;;;;;;5104430;28;20468;-80
2023/01/15 08:35:05;;;;;;;8.60;2.33;;;15.40;63.30;;;;;;5110299;28;20476;-80
2023/01/15 08:37:33;;;;;;;5.07;2.17;;;15.40;63.40;;;;;;5107832;28;20448;-80
2023/01/15 08:40:02;;;;;;;6.20;2.40;;;15.40;63.20;;;;;;5093761;28;20471;-83
2023/01/15 08:42:30;;;;;;;9.00;2.97;;;15.40;63.30;;;;;;5102563;28;20461;-81
2023/01/15 08:44:58;;;;;;;5.70;2.13;;;15.50;63.40;;;;;;5103765;28;20475;-80
2023/01/15 08:47:27;;;;;;;9.20;2.53;;;15.60;63.40;;;;;;5094258;28;20523;-80
2023/01/15 08:49:56;;;;;;;7.93;2.00;;;15.60;63.20;;;;;;5094996;28;20444;-80
2023/01/15 08:52:24;;;;;;;6.80;2.00;;;15.60;63.30;;;;;;5096446;28;20447;-80
2023/01/15 08:54:51;;;;;;;6.43;2.10;;;15.60;63.20;;;;;;5101467;28;20475;-80
2023/01/15 08:57:19;;;;;;;6.10;2.10;;;15.70;63.30;;;;;;5094060;28;20461;-81
2023/01/15 08:59:47;;;;;;;4.63;2.30;;;15.90;63.60;;;;;;5104154;28;20473;-80
2023/01/15 09:02:16;;;;;;;3.63;1.80;;;16.00;63.70;;;;;;5107167;28;20454;-80
2023/01/15 09:04:45;;;;;;;5.80;2.30;;;16.10;63.30;;;;;;5096445;28;20468;-81
2023/01/15 09:07:15;;;;;;;4.07;1.83;;;16.20;63.30;;;;;;5105310;28;20455;-81
2023/01/15 09:09:43;;;;;;;5.40;2.00;;;16.20;63.10;;;;;;5106455;28;20440;-80
2023/01/15 09:12:11;;;;;;;4.47;1.83;;;16.20;63.10;;;;;;5103674;28;20459;-80
2023/01/15 09:14:39;;;;;;;4.50;1.80;;;16.20;63.10;;;;;;5098472;28;20488;-80
2023/01/15 09:17:27;;;;;;;3.50;1.77;;;16.20;63.10;;;;;;5107937;28;20500;-79
2023/01/15 09:19:57;;;;;;;4.03;1.93;;;16.20;63.20;;;;;;5101620;28;20472;-80
2023/01/15 09:22:28;;;;;;;9.73;2.10;;;16.30;64.10;;;;;;5092362;28;20448;-80
2023/01/15 09:24:56;;;;;;;4.90;1.87;;;16.50;63.40;;;;;;5098152;28;20471;-81
2023/01/15 09:27:24;;;;;;;5.63;2.00;;;16.60;63.20;;;;;;5098798;28;20456;-80
2023/01/15 09:29:52;;;;;;;5.50;2.00;;;16.70;63.40;;;;;;5103110;28;20460;-78
2023/01/15 09:32:20;;;;;;;5.23;1.80;;;16.80;63.00;;;;;;5092056;28;20461;-79
2023/01/15 09:34:48;;;;;;;4.40;2.13;;;16.80;62.90;;;;;;5097996;28;20475;-79
2023/01/15 09:37:17;;;;;;;4.97;2.10;;;16.90;62.90;;;;;;5094804;28;20456;-79
2023/01/15 09:39:45;;;;;;;5.67;1.80;;;17.00;62.80;;;;;;5103852;28;20479;-79
2023/01/15 09:42:24;;;;;;;6.53;1.93;;;16.90;62.50;;;;;;5099530;28;20463;-79
2023/01/15 09:45:03;;;;;;;7.10;2.00;;;17.00;62.70;;;;;;5095488;28;20460;-79
2023/01/15 09:47:33;;;;;;;2.87;2.00;;;17.10;63.00;;;;;;5100158;28;20452;-80
2023/01/15 09:50:11;;;;;;;5.03;1.90;;;17.10;63.00;;;;;;5092771;28;20449;-81
2023/01/15 09:52:57;;;;;;;3.83;2.10;;;17.20;62.60;;;;;;5094347;28;20449;-80
2023/01/15 09:55:27;;;;;;;3.93;1.90;;;17.30;62.40;;;;;;5099465;28;20445;-80
2023/01/15 09:57:56;;;;;;;4.07;2.20;;;17.30;62.20;;;;;;5096294;28;20480;-80
2023/01/15 10:00:27;;;;;;;6.83;2.20;;;17.30;62.30;;;;;;5101545;28;20454;-82
2023/01/15 10:02:57;;;;;;;3.63;1.83;;;17.20;62.00;;;;;;5103979;28;20448;-80
2023/01/15 10:05:28;;;;;;;3.17;1.70;;;17.20;61.90;;;;;;5093431;28;20448;-80
2023/01/15 10:07:59;;;;;;;3.20;1.90;;;17.20;61.80;;;;;;5099942;28;20448;-80
2023/01/15 10:10:32;;;;;;;3.23;1.67;;;17.10;61.70;;;;;;5105486;28;20826;-79
2023/01/15 10:13:04;;;;;;;3.93;1.80;;;17.00;61.40;;;;;;5097648;28;20459;-80
2023/01/15 10:15:35;;;;;;;4.97;2.07;;;17.00;61.60;;;;;;5105801;28;20456;-81
2023/01/15 10:18:06;;;;;;;6.00;1.87;;;16.90;61.50;;;;;;5108340;28;20450;-81
2023/01/15 10:20:52;;;;;;;5.07;1.47;;;16.80;61.30;;;;;;5102636;28;20480;-80
2023/01/15 10:23:28;;;;;;;3.43;1.73;;;16.80;61.40;;;;;;5088536;28;20472;-80
2023/01/15 10:26:00;;;;;;;3.50;1.70;;;16.80;61.40;;;;;;5092073;28;20499;-81
2023/01/15 10:28:29;;;;;;;2.30;1.57;;;16.80;61.70;;;;;;5089841;28;20450;-81
2023/01/15 10:30:57;;;;;;;6.73;2.00;;;16.70;61.30;;;;;;5091029;28;20876;-81
2023/01/15 10:33:34;;;;;;;3.33;1.57;;;16.70;61.30;;;;;;5089163;28;20480;-80
2023/01/15 10:36:03;;;;;;;3.00;1.53;;;16.60;61.40;;;;;;5090924;28;20456;-81
2023/01/15 10:38:35;;;;;;;3.10;1.60;;;16.60;61.70;;;;;;5088460;28;20449;-80
2023/01/15 10:41:09;;;;;;;3.73;1.57;;;16.60;61.50;;;;;;5088025;28;20464;-80
2023/01/15 10:43:44;;;;;;;2.67;1.50;;;16.50;61.50;;;;;;5086569;28;20507;-80
2023/01/15 10:46:13;;;;;;;3.63;1.47;;;16.50;61.50;;;;;;5086890;28;20474;-80
2023/01/15 10:48:42;;;;;;;3.23;1.50;;;16.50;61.70;;;;;;5087706;28;20532;-82
2023/01/15 10:51:14;;;;;;;8.97;1.67;;;16.70;62.30;;;;;;5087108;28;20441;-80
2023/01/15 10:53:45;;;;;;;3.20;1.60;;;17.10;62.80;;;;;;5088370;28;20468;-78
2023/01/15 10:56:15;;;;;;;2.60;1.60;;;17.50;63.10;;;;;;5088911;28;20455;-79
2023/01/15 10:58:45;;;;;;;4.00;1.60;;;17.80;62.90;;;;;;5089188;28;20464;-79
2023/01/15 11:01:18;;;;;;;1.93;1.53;;;18.20;62.60;;;;;;5088618;28;20500;-79
2023/01/15 11:03:46;;;;;;;4.63;1.90;;;18.50;61.60;;;;;;5095081;28;20500;-79
2023/01/15 11:06:14;;;;;;;2.00;1.30;;;18.40;60.40;;;;;;5085249;28;20457;-79
2023/01/15 11:08:45;;;;;;;3.70;2.00;;;18.40;60.20;;;;;;5087590;28;20449;-79
2023/01/15 11:19:56;;;;;;;6.77;2.00;;;18.70;61.10;;;;;;5082525;28;20441;-79
2023/01/15 11:22:27;;;;;;;2.03;1.33;;;18.90;60.10;;;;;;5075044;28;20833;-79
2023/01/15 11:24:58;;;;;;;2.93;1.83;;;19.10;60.10;;;;;;5087310;28;20469;-78
2023/01/15 11:27:27;;;;;;;2.13;1.70;;;19.10;59.20;;;;;;5084157;28;20537;-80
2023/01/15 11:29:56;;;;;;;3.00;1.80;;;19.00;58.90;;;;;;5079430;28;20842;-78
2023/01/15 11:32:28;;;;;;;2.23;1.53;;;18.80;58.80;;;;;;5084360;28;20449;-79
2023/01/15 11:34:56;;;;;;;3.60;1.50;;;18.60;58.80;;;;;;5085170;28;20495;-79
2023/01/15 11:37:24;;;;;;;2.73;1.27;;;18.50;58.90;;;;;;5080309;28;20453;-78
2023/01/15 11:39:53;;;;;;;3.20;1.50;;;18.30;59.00;;;;;;5080977;28;20444;-79
2023/01/15 11:50:52;;;;;;;2.87;1.60;;;18.30;59.10;;;;;;5085920;28;20468;-79
2023/01/15 11:53:22;;;;;;;3.60;1.30;;;18.30;58.80;;;;;;5097300;28;20469;-80
2023/01/15 11:55:51;;;;;;;6.27;1.60;;;18.20;58.80;;;;;;5104704;28;20448;-80
2023/01/15 11:58:20;;;;;;;3.00;1.60;;;18.20;58.90;;;;;;5094986;28;20452;-80
2023/01/15 12:00:49;;;;;;;6.20;1.73;;;18.10;58.70;;;;;;5097039;28;20476;-80
2023/01/15 12:03:18;;;;;;;3.00;1.67;;;18.00;58.60;;;;;;5110695;28;20508;-78
2023/01/15 12:05:56;;;;;;;2.10;1.67;;;18.00;59.00;;;;;;5094480;28;20455;-78
2023/01/15 12:08:38;;;;;;;3.93;1.77;;;18.00;58.90;;;;;;5089343;28;20454;-79
2023/01/15 12:11:15;;;;;;;3.93;2.10;;;17.90;58.90;;;;;;5096453;28;20437;-79
2023/01/15 12:13:59;;;;;;;4.57;1.87;;;17.90;59.00;;;;;;5097243;28;20554;-77
2023/01/15 12:16:30;;;;;;;4.43;1.63;;;17.70;59.00;;;;;;5101315;28;20447;-79
2023/01/15 12:18:58;;;;;;;3.53;1.60;;;17.70;59.30;;;;;;5098499;28;20448;-79
2023/01/15 12:22:03;;;;;;;3.63;1.77;;;17.70;59.40;;;;;;5099627;28;20472;-79
2023/01/15 12:25:04;;;;;;;2.53;1.60;;;17.60;59.30;;;;;;5098636;28;20475;-79
2023/01/15 12:27:57;;;;;;;8.90;2.30;;;17.50;59.80;;;;;;5098084;28;20443;-80
2023/01/15 12:30:29;;;;;;;4.30;1.77;;;17.90;59.90;;;;;;5095723;28;20457;-79
2023/01/15 12:33:01;;;;;;;3.70;1.57;;;18.00;59.50;;;;;;5100436;28;20454;-79
2023/01/15 12:35:30;;;;;;;7.77;2.60;;;18.30;59.90;;;;;;5109090;28;20447;-79
2023/01/15 12:38:01;;;;;;;1.77;1.60;;;18.80;60.10;;;;;;5103433;28;20448;-79
2023/01/15 12:40:32;;;;;;;5.57;1.80;;;19.20;59.60;;;;;;5099228;28;20470;-79
2023/01/15 12:45:48;;;;;;;4.10;1.73;;;20.00;58.60;;;;;;5094035;28;20428;-80
2023/01/15 12:48:19;;;;;;;4.00;1.57;;;20.40;58.10;;;;;;5098545;28;20441;-81
2023/01/15 12:50:47;;;;;;;3.53;2.10;;;20.60;57.50;;;;;;5091484;28;20530;-79
2023/01/15 12:53:17;;;;;;;6.10;2.10;;;20.80;57.40;;;;;;5103247;28;20447;-79
2023/01/15 12:55:48;;;;;;;2.40;1.57;;;20.90;56.60;;;;;;5096703;28;20466;-80
2023/01/15 12:58:22;;;;;;;2.20;1.53;;;21.00;56.30;;;;;;5093775;28;20431;-80
2023/01/15 13:00:51;;;;;;;2.53;1.20;;;21.20;56.20;;;;;;5092979;28;20455;-79
2023/01/15 13:03:23;;;;;;;3.00;1.57;;;21.10;55.50;;;;;;5090591;28;20471;-79
2023/01/15 13:05:53;;;;;;;3.60;1.57;;;20.90;55.40;;;;;;5085440;28;20460;-79
2023/01/15 13:08:23;;;;;;;4.50;1.97;;;20.70;55.10;;;;;;5091624;28;20449;-79
2023/01/15 13:10:51;;;;;;;4.40;1.87;;;20.40;55.40;;;;;;5088571;28;20460;-80
2023/01/15 13:13:21;;;;;;;4.80;1.53;;;20.20;55.50;;;;;;5091199;28;20472;-79
2023/01/15 13:16:03;;;;;;;3.20;1.60;;;20.00;56.00;;;;;;5102473;28;20440;-80
2023/01/15 13:18:35;;;;;;;2.77;1.80;;;19.90;55.50;;;;;;5096809;28;20950;-80
2023/01/15 13:21:09;;;;;;;5.10;1.60;;;19.70;55.60;;;;;;5096770;28;20468;-80
2023/01/15 13:23:44;;;;;;;3.47;1.53;;;19.60;55.80;;;;;;5098999;28;20473;-80
2023/01/15 13:26:18;;;;;;;5.83;1.93;;;19.40;55.90;;;;;;5088917;28;20456;-80
2023/01/15 13:28:57;;;;;;;8.07;2.00;;;19.30;55.90;;;;;;5104104;28;20452;-80
2023/01/15 13:31:42;;;;;;;4.47;1.90;;;19.20;56.30;;;;;;5096862;28;20444;-80
2023/01/15 13:34:13;;;;;;;6.13;1.90;;;19.00;56.30;;;;;;5094588;28;20472;-78
2023/01/15 13:36:42;;;;;;;2.70;1.80;;;19.00;56.50;;;;;;5097585;28;20536;-80
2023/01/15 13:39:15;;;;;;;5.23;1.70;;;18.90;56.40;;;;;;5089680;28;20449;-80
2023/01/15 13:44:31;;;;;;;2.43;1.90;;;18.90;56.80;;;;;;5094881;28;20469;-80
2023/01/15 13:47:02;;;;;;;2.00;1.70;;;18.80;56.80;;;;;;5096237;28;20464;-80
2023/01/15 13:49:31;;;;;;;5.00;2.20;;;18.80;56.60;;;;;;5097485;28;20448;-79
2023/01/15 13:52:03;;;;;;;4.10;1.80;;;18.80;56.70;;;;;;5096091;28;20472;-79